General Aviation Weather

Text Reports

Enter one or more of the following location identifiers separated by a space:

Zip Code, Four-Character ICAO or Three-Character IATA airport codes.

METAR - Aviation Routine Weather Report
LTBA - Istanbul,
Updated at Saat: 07:20 AM GMT Tarih: 24 Ekim 2014 (10:20 EEST):
METAR LTBA 240720Z 19005KT 160V220 9999 FEW040 19/13 Q1013 NOSIG
TAF - Terminal Area Forecast
LTBA - Istanbul,
Updated at Saat: 07:20 AM GMT Tarih: 24 Ekim 2014 (10:20 EEST):
TAF LTBA 240440Z 2406/2512 VRB02KT CAVOK
      BECMG 2410/2412 SCT040 BKN100
      BECMG 2412/2415 03013KT PROB30
      TEMPO 2419/2422 -SHRA
      BECMG 2500/2502 03020G35KT -SHRA BKN025 BKN080=
Decoded:
ID: LTBA   Istanbul/Atatur, TU
REPORT TIME: 24  4:40
VALID TIME: 24 October AT 06:00Z to 25 October AT 12:00Z.
INITIAL WX
   WIND: VARIABLE AT 2
   WEATHER: CAVOK
WX BECOMING FROM 10Z TO 12Z
   CLOUDS: 40 SCT
   CLOUDS: 100 BKN
WX BECOMING FROM 12Z TO 15Z
   VISIBILITY: 0.0 MILES
   COMMENTS: 000 FCAW41 KWBC 240503 TAF TAF LTAD 240440Z 2406/2415 15008KT 9999 -SHRA BKN027 BKN080 
WX BECOMING FROM 10Z TO 13Z
   CLOUDS: 40 SCT
   CLOUDS: 100 BKN
   COMMENTS: = 

PIREP - Pilot Weather Report
LTBA - Istanbul,
Updated at Saat: 07:20 AM GMT Tarih: 24 Ekim 2014 (10:20 EEST):
No PIREP is currently available for this location.
AIRMET - Airmens Meteorological Information
LTBA - Istanbul,
Updated at Saat: 07:20 AM GMT Tarih: 24 Ekim 2014 (10:20 EEST):
No AIRMET is currently available for this location.
SIGMET - Significant Meteorological Information
LTBA - Istanbul,
Updated at Saat: 07:20 AM GMT Tarih: 24 Ekim 2014 (10:20 EEST):
No SIGMET is currently available for this location.
NOTAM - Notice to Airmen
LTBA - Istanbul,
Updated at Saat: 07:20 AM GMT Tarih: 24 Ekim 2014 (10:20 EEST):
No NOTAM is currently available for this location.
Forecast Area
LTBA - Istanbul,
Updated at Saat: 07:20 AM GMT Tarih: 24 Ekim 2014 (10:20 EEST):
No NOTAM is currently available for this location.
Aviation Weather Maps